Time;durP1;ratioP1;P1;durP2;ratioP2;P2;SDS_P1;SDS_P2;PMS_P1;PMS_P2;Temp;Humidity;BMP_temperature;BMP_pressure;BME280_temperature;BME280_humidity;BME280_pressure;Samples;Min_cycle;Max_cycle;Signal;HPM_P1;HPM_P2
2021/12/05 00:17:09;;;;;;;8.80;4.32;;;5.00;99.90;;;;;;5068273;28;20408;-44
2021/12/05 00:21:42;;;;;;;5.85;3.58;;;4.90;99.90;;;;;;5068017;28;20052;-43
2021/12/05 00:24:20;;;;;;;9.82;3.53;;;4.90;99.90;;;;;;5067307;28;20464;-43
2021/12/05 00:26:54;;;;;;;11.07;3.08;;;4.80;99.90;;;;;;5067642;28;20028;-42
2021/12/05 00:32:25;;;;;;;9.60;3.63;;;4.80;99.90;;;;;;5067279;28;20089;-43
2021/12/05 00:35:23;;;;;;;9.27;3.65;;;4.70;99.90;;;;;;5068128;28;20052;-43
2021/12/05 00:41:01;;;;;;;10.10;3.83;;;4.70;99.90;;;;;;5067317;28;20102;-43
2021/12/05 00:46:18;;;;;;;6.28;3.15;;;4.70;99.90;;;;;;5047448;28;20473;-42
2021/12/05 00:49:00;;;;;;;7.95;3.20;;;4.70;99.90;;;;;;5064107;28;20036;-44
2021/12/05 01:05:09;;;;;;;7.60;2.97;;;4.60;99.90;;;;;;5067801;28;20039;-43
2021/12/05 01:07:56;;;;;;;10.32;3.35;;;4.50;99.90;;;;;;5066500;28;20039;-43
2021/12/05 01:13:26;;;;;;;13.50;3.70;;;4.50;99.90;;;;;;5066499;28;20495;-43
2021/12/05 01:15:37;;;;;;;10.45;3.42;;;4.50;99.90;;;;;;5055907;28;20490;-44
2021/12/05 01:18:10;;;;;;;9.23;3.55;;;4.60;99.90;;;;;;5066990;28;20030;-43
2021/12/05 01:20:44;;;;;;;10.25;3.83;;;4.60;99.90;;;;;;5066164;28;20035;-44
2021/12/05 01:23:22;;;;;;;8.68;3.60;;;4.60;99.90;;;;;;5067189;28;20193;-44
2021/12/05 01:26:02;;;;;;;7.50;3.60;;;4.60;99.90;;;;;;5067010;28;20025;-42
2021/12/05 01:35:26;;;;;;;9.70;3.53;;;4.70;99.90;;;;;;5062715;28;20036;-44
2021/12/05 01:37:37;;;;;;;9.68;2.83;;;4.70;99.90;;;;;;5061811;28;20029;-44
2021/12/05 01:40:31;;;;;;;8.70;3.38;;;4.70;99.90;;;;;;5067241;28;20025;-43
2021/12/05 01:46:07;;;;;;;11.75;3.22;;;4.60;99.90;;;;;;5063008;28;20049;-43
2021/12/05 02:41:39;;;;;;;7.50;2.80;;;4.40;99.90;;;;;;5069863;28;20557;-43
2021/12/05 02:43:56;;;;;;;11.73;3.03;;;4.30;99.90;;;;;;5063641;28;20476;-43
2021/12/05 02:46:22;;;;;;;11.95;3.50;;;4.30;99.90;;;;;;5069865;28;20020;-43
2021/12/05 02:48:47;;;;;;;7.30;2.92;;;4.30;99.90;;;;;;5069594;28;20460;-44
2021/12/05 02:51:20;;;;;;;8.60;3.17;;;4.40;99.90;;;;;;5069288;28;20031;-43
2021/12/05 02:53:50;;;;;;;11.57;3.42;;;4.40;99.90;;;;;;5069978;28;20048;-43
2021/12/05 02:56:17;;;;;;;12.35;3.60;;;4.40;99.90;;;;;;5069770;28;20048;-43
2021/12/05 02:58:51;;;;;;;16.20;4.47;;;4.40;99.90;;;;;;5068292;28;20817;-43
2021/12/05 03:01:27;;;;;;;10.07;3.33;;;4.40;99.90;;;;;;5070310;28;20024;-43
2021/12/05 03:03:54;;;;;;;10.82;3.72;;;4.40;99.90;;;;;;5066861;28;20021;-43
2021/12/05 03:06:24;;;;;;;14.73;3.78;;;4.50;99.90;;;;;;5069107;28;20380;-43
2021/12/05 03:08:58;;;;;;;7.53;3.03;;;4.40;99.90;;;;;;5068026;28;20020;-43
2021/12/05 03:11:26;;;;;;;9.75;3.33;;;4.50;99.90;;;;;;5069974;28;20430;-43
2021/12/05 03:13:51;;;;;;;9.45;3.33;;;4.50;99.90;;;;;;5068333;28;20021;-44
2021/12/05 03:16:23;;;;;;;9.45;3.47;;;4.50;99.90;;;;;;5069517;28;20037;-42
2021/12/05 03:18:48;;;;;;;12.13;3.85;;;4.50;99.90;;;;;;5068213;28;20052;-43
2021/12/05 03:21:15;;;;;;;11.98;3.35;;;4.50;99.90;;;;;;5069845;28;20074;-43
2021/12/05 03:23:43;;;;;;;13.77;3.85;;;4.50;99.90;;;;;;5068447;28;20054;-42
2021/12/05 03:26:15;;;;;;;10.80;3.67;;;4.50;99.90;;;;;;5068581;28;20575;-42
2021/12/05 03:28:41;;;;;;;10.63;3.50;;;4.50;99.90;;;;;;5069160;28;20104;-43
2021/12/05 03:31:08;;;;;;;7.65;3.53;;;4.50;99.90;;;;;;5069357;28;20064;-44
2021/12/05 03:33:35;;;;;;;11.43;3.40;;;4.50;99.90;;;;;;5067908;28;20032;-42
2021/12/05 03:36:02;;;;;;;8.68;3.05;;;4.60;99.90;;;;;;5069615;28;20115;-43
2021/12/05 03:38:28;;;;;;;8.23;2.92;;;4.60;99.90;;;;;;5068527;28;20086;-43
2021/12/05 03:40:54;;;;;;;10.10;3.30;;;4.60;99.90;;;;;;5068154;28;20033;-42
2021/12/05 03:43:20;;;;;;;8.40;3.40;;;4.60;99.90;;;;;;5068969;28;20058;-43
2021/12/05 03:45:50;;;;;;;11.68;3.30;;;4.60;99.90;;;;;;5068010;28;20033;-43
2021/12/05 03:48:16;;;;;;;8.13;3.30;;;4.60;99.90;;;;;;5068235;28;20024;-43
2021/12/05 03:50:45;;;;;;;9.00;3.15;;;4.60;99.90;;;;;;5068607;28;20044;-43
2021/12/05 03:53:12;;;;;;;8.70;3.17;;;4.60;99.90;;;;;;5069075;28;20074;-43
2021/12/05 03:55:41;;;;;;;9.48;3.15;;;4.70;99.90;;;;;;5067639;28;20081;-43
2021/12/05 03:58:07;;;;;;;8.82;2.88;;;4.70;99.90;;;;;;5068553;28;20506;-42
2021/12/05 04:00:40;;;;;;;6.80;3.05;;;4.70;99.90;;;;;;5068104;28;20060;-42
2021/12/05 04:03:11;;;;;;;10.30;2.90;;;4.70;99.90;;;;;;5067782;28;20572;-44
2021/12/05 04:05:37;;;;;;;7.82;2.90;;;4.70;99.90;;;;;;5068100;28;20020;-43
2021/12/05 04:08:07;;;;;;;10.43;3.55;;;4.70;99.90;;;;;;5067612;28;20127;-43
2021/12/05 04:10:35;;;;;;;6.40;2.60;;;4.70;99.90;;;;;;5067482;28;20040;-42
2021/12/05 04:13:01;;;;;;;10.48;3.20;;;4.70;99.90;;;;;;5068732;28;20116;-42
2021/12/05 04:15:26;;;;;;;8.23;3.30;;;4.70;99.90;;;;;;5066634;28;20107;-41
2021/12/05 04:17:53;;;;;;;9.88;3.15;;;4.70;99.90;;;;;;5068240;28;20079;-43
2021/12/05 04:20:19;;;;;;;9.95;3.97;;;4.80;99.90;;;;;;5068366;28;20021;-43
2021/12/05 04:22:48;;;;;;;10.93;3.78;;;4.80;99.90;;;;;;5066511;28;20519;-44
2021/12/05 04:25:16;;;;;;;8.50;3.97;;;4.80;99.90;;;;;;5068008;28;20111;-43
2021/12/05 04:27:43;;;;;;;12.32;5.10;;;4.80;99.90;;;;;;5067429;28;20106;-43
2021/12/05 04:30:14;;;;;;;9.40;4.15;;;4.80;99.90;;;;;;5067544;28;20037;-41
2021/12/05 04:32:40;;;;;;;6.22;3.40;;;4.80;99.90;;;;;;5067619;28;20392;-42
2021/12/05 04:35:06;;;;;;;6.80;3.38;;;4.80;99.90;;;;;;5067456;28;20020;-43
2021/12/05 04:37:32;;;;;;;6.65;3.30;;;4.80;99.90;;;;;;5067539;28;20017;-43
2021/12/05 04:39:58;;;;;;;8.13;3.33;;;4.80;99.90;;;;;;5067664;28;20033;-43
2021/12/05 04:42:23;;;;;;;7.93;3.63;;;4.80;99.90;;;;;;5067204;28;20024;-44
2021/12/05 04:44:49;;;;;;;5.88;2.90;;;4.80;99.90;;;;;;5066866;28;20029;-43
2021/12/05 04:47:15;;;;;;;11.52;4.00;;;4.90;99.90;;;;;;5067897;28;20051;-43
2021/12/05 04:49:41;;;;;;;7.72;3.58;;;4.90;99.90;;;;;;5067401;28;20055;-43
2021/12/05 04:52:09;;;;;;;9.38;3.78;;;4.90;99.90;;;;;;5066735;28;20036;-44
2021/12/05 04:54:35;;;;;;;8.88;3.40;;;4.90;99.90;;;;;;5067471;28;20051;-44
2021/12/05 04:57:01;;;;;;;6.97;3.50;;;4.90;99.90;;;;;;5067559;28;20040;-43
2021/12/05 04:59:29;;;;;;;9.50;3.90;;;4.90;99.90;;;;;;5066430;28;20037;-43
2021/12/05 05:01:58;;;;;;;11.65;4.07;;;4.90;99.90;;;;;;5066829;28;20353;-44
2021/12/05 05:04:27;;;;;;;11.93;4.47;;;4.90;99.90;;;;;;5066837;28;20063;-44
2021/12/05 05:07:03;;;;;;;10.00;3.67;;;4.90;99.90;;;;;;5067030;28;20028;-44
2021/12/05 05:09:30;;;;;;;7.53;3.90;;;4.90;99.90;;;;;;5067306;28;20040;-44
2021/12/05 05:11:56;;;;;;;9.35;4.10;;;4.90;99.90;;;;;;5066475;28;20028;-44
2021/12/05 05:14:21;;;;;;;9.60;4.32;;;5.00;99.90;;;;;;5067705;28;20021;-44
2021/12/05 05:16:52;;;;;;;11.73;4.35;;;4.90;99.90;;;;;;5066698;28;20162;-43
2021/12/05 05:19:19;;;;;;;6.80;3.88;;;4.90;99.90;;;;;;5066923;28;20032;-44
2021/12/05 05:21:52;;;;;;;7.25;4.22;;;5.00;99.90;;;;;;5066357;28;20048;-44
2021/12/05 05:40:24;;;;;;;8.70;4.82;;;5.00;99.90;;;;;;5066868;28;20048;-43
2021/12/05 05:50:38;;;;;;;6.28;4.35;;;5.10;99.90;;;;;;5066980;28;20036;-43
2021/12/05 05:53:05;;;;;;;8.23;4.80;;;5.10;99.90;;;;;;5066516;28;20073;-43
2021/12/05 05:55:34;;;;;;;11.70;5.55;;;5.10;99.90;;;;;;5065843;28;20432;-44
2021/12/05 05:58:07;;;;;;;11.95;5.10;;;5.10;99.90;;;;;;5067145;28;20205;-43
2021/12/05 06:00:38;;;;;;;9.20;5.32;;;5.10;99.90;;;;;;5065836;28;20131;-44
2021/12/05 06:03:22;;;;;;;12.20;5.60;;;5.10;99.90;;;;;;5066791;28;20025;-43
2021/12/05 06:06:02;;;;;;;7.78;5.10;;;5.10;99.90;;;;;;5066773;28;20048;-43
2021/12/05 06:08:30;;;;;;;8.30;5.18;;;5.20;99.90;;;;;;5066324;28;20089;-43
2021/12/05 06:10:58;;;;;;;6.40;4.32;;;5.20;99.90;;;;;;5066595;28;20040;-43
2021/12/05 06:13:26;;;;;;;8.02;4.65;;;5.20;99.90;;;;;;5066188;28;20048;-42
2021/12/05 06:15:52;;;;;;;6.68;4.30;;;5.20;99.90;;;;;;5066100;28;20531;-42
2021/12/05 06:18:18;;;;;;;10.07;4.68;;;5.20;99.90;;;;;;5066810;28;20029;-43
2021/12/05 06:20:44;;;;;;;7.72;3.70;;;5.20;99.90;;;;;;5066592;28;20081;-43
2021/12/05 06:23:12;;;;;;;7.32;4.30;;;5.20;99.90;;;;;;5065406;28;20126;-43
2021/12/05 06:25:41;;;;;;;7.05;4.43;;;5.30;99.90;;;;;;5065774;28;20028;-43
2021/12/05 06:28:11;;;;;;;6.00;3.75;;;5.30;99.90;;;;;;5066966;28;20025;-43
2021/12/05 06:30:57;;;;;;;5.28;3.83;;;5.30;99.90;;;;;;5064133;28;20412;-42
2021/12/05 06:39:19;;;;;;;7.45;5.03;;;5.20;99.90;;;;;;5056956;28;20128;-43
2021/12/05 06:41:55;;;;;;;7.43;4.07;;;5.20;99.90;;;;;;5060672;28;20031;-43
2021/12/05 06:47:07;;;;;;;5.22;4.22;;;5.20;99.90;;;;;;5070487;28;20551;-43
2021/12/05 06:49:33;;;;;;;6.78;3.83;;;5.30;99.90;;;;;;5069412;28;20068;-44
2021/12/05 06:51:58;;;;;;;7.03;4.13;;;5.20;99.90;;;;;;5069168;28;20055;-43
2021/12/05 06:54:24;;;;;;;7.90;4.13;;;5.20;99.90;;;;;;5070173;28;20025;-43
2021/12/05 06:56:51;;;;;;;7.85;3.80;;;5.20;99.90;;;;;;5068998;28;20552;-43
2021/12/05 06:59:17;;;;;;;6.95;4.07;;;5.20;99.90;;;;;;5070049;28;20056;-43
2021/12/05 07:01:42;;;;;;;7.15;4.38;;;5.20;99.90;;;;;;5068744;28;20055;-43
2021/12/05 07:04:22;;;;;;;5.88;3.85;;;5.20;99.90;;;;;;5069275;28;20075;-44
2021/12/05 07:06:47;;;;;;;5.72;3.60;;;5.20;99.90;;;;;;5068535;28;20024;-43
2021/12/05 07:09:13;;;;;;;5.90;3.47;;;5.20;99.90;;;;;;5070197;28;20031;-44
2021/12/05 07:11:57;;;;;;;5.25;3.40;;;5.20;99.90;;;;;;5068328;28;20028;-43
2021/12/05 07:14:39;;;;;;;6.43;3.58;;;5.20;99.90;;;;;;5069284;28;20017;-43
2021/12/05 07:17:08;;;;;;;5.60;3.65;;;5.30;99.90;;;;;;5069883;28;20727;-46
2021/12/05 07:19:58;;;;;;;4.70;3.88;;;5.30;99.90;;;;;;5068772;28;20116;-44
2021/12/05 07:22:36;;;;;;;5.03;3.70;;;5.30;99.90;;;;;;5068363;28;20050;-43
2021/12/05 07:25:10;;;;;;;6.32;3.63;;;5.30;99.90;;;;;;5068714;28;20050;-44
2021/12/05 07:41:41;;;;;;;6.38;4.50;;;5.30;99.90;;;;;;5068502;28;20501;-45
2021/12/05 07:44:06;;;;;;;6.72;4.70;;;5.30;99.90;;;;;;5069383;28;20028;-44
2021/12/05 07:46:32;;;;;;;5.22;4.72;;;5.30;99.90;;;;;;5068017;28;20435;-44
2021/12/05 07:49:06;;;;;;;5.25;4.13;;;5.30;99.90;;;;;;5068929;28;20074;-43
2021/12/05 07:51:32;;;;;;;5.63;4.68;;;5.30;99.90;;;;;;5067488;28;20055;-43
2021/12/05 07:54:09;;;;;;;5.63;4.72;;;5.30;99.90;;;;;;5068051;28;20071;-43
2021/12/05 08:15:19;;;;;;;4.30;3.47;;;5.30;99.90;;;;;;5067777;28;20081;-44
2021/12/05 08:17:52;;;;;;;2.90;2.70;;;5.30;99.90;;;;;;5067679;28;20020;-44
2021/12/05 08:20:26;;;;;;;2.97;2.78;;;5.30;99.90;;;;;;5068400;28;20743;-44
2021/12/05 08:22:52;;;;;;;3.90;3.38;;;5.20;99.90;;;;;;5066960;28;20052;-44
2021/12/05 08:25:24;;;;;;;4.70;3.35;;;5.20;99.90;;;;;;5064805;28;20054;-43
2021/12/05 08:27:54;;;;;;;4.27;3.87;;;5.20;99.90;;;;;;5066354;28;20376;-45
2021/12/05 08:30:29;;;;;;;3.58;3.28;;;5.30;99.90;;;;;;5067036;28;20033;-44
2021/12/05 08:33:56;;;;;;;3.97;3.67;;;5.30;99.90;;;;;;5066910;28;20029;-44
2021/12/05 08:36:13;;;;;;;3.80;3.45;;;5.30;99.90;;;;;;5067815;28;20515;-43
2021/12/05 09:08:43;;;;;;;4.22;3.83;;;5.30;99.90;;;;;;5066365;28;20075;-44
2021/12/05 09:21:59;;;;;;;5.70;4.97;;;5.40;99.90;;;;;;5066934;28;20141;-44
2021/12/05 09:24:45;;;;;;;5.93;5.10;;;5.40;99.90;;;;;;5067167;28;20527;-44
2021/12/05 10:03:35;;;;;;;7.28;6.43;;;5.60;99.90;;;;;;5066497;28;20127;-44
2021/12/05 10:13:28;;;;;;;8.07;6.63;;;5.60;99.90;;;;;;5066715;28;20044;-43
2021/12/05 10:37:27;;;;;;;6.78;5.60;;;6.00;99.90;;;;;;5057409;28;20059;-43
2021/12/05 10:40:04;;;;;;;6.18;5.57;;;6.00;99.90;;;;;;5070152;28;20114;-43
2021/12/05 10:42:42;;;;;;;5.72;4.85;;;6.10;99.90;;;;;;5068739;28;20077;-43
2021/12/05 10:45:28;;;;;;;5.22;4.72;;;6.10;99.90;;;;;;5070125;28;20028;-43
2021/12/05 10:47:56;;;;;;;5.07;4.57;;;6.10;99.90;;;;;;5070014;28;20032;-43
2021/12/05 10:50:29;;;;;;;7.75;6.10;;;6.20;99.90;;;;;;5068892;28;20067;-44
2021/12/05 10:53:19;;;;;;;7.45;6.30;;;6.10;99.90;;;;;;5068922;28;20119;-43
2021/12/05 10:55:45;;;;;;;6.18;5.57;;;6.10;99.90;;;;;;5069132;28;20158;-44
2021/12/05 10:58:10;;;;;;;6.00;5.40;;;6.00;99.90;;;;;;5069719;28;20493;-43
2021/12/05 11:00:36;;;;;;;5.55;5.03;;;6.10;99.90;;;;;;5066857;28;20047;-44
2021/12/05 11:03:17;;;;;;;6.05;5.45;;;6.00;99.90;;;;;;5069182;28;20016;-43
2021/12/05 11:05:43;;;;;;;7.32;5.38;;;6.10;99.90;;;;;;5069251;28;20135;-43
2021/12/05 11:08:41;;;;;;;5.53;5.03;;;6.10;99.90;;;;;;5069749;28;20024;-44
2021/12/05 11:11:16;;;;;;;5.78;5.18;;;6.10;99.90;;;;;;5056068;28;20037;-44
2021/12/05 11:13:43;;;;;;;6.30;5.32;;;6.10;99.90;;;;;;5068903;28;20063;-44
2021/12/05 11:16:39;;;;;;;5.75;4.55;;;6.10;99.90;;;;;;5069683;28;20090;-44
2021/12/05 11:19:13;;;;;;;6.00;4.75;;;6.20;99.90;;;;;;5068713;28;20036;-44
2021/12/05 11:21:46;;;;;;;8.05;6.32;;;6.20;99.90;;;;;;5068247;28;20036;-44
2021/12/05 11:24:16;;;;;;;8.13;7.32;;;6.20;99.90;;;;;;5068673;28;20707;-43
2021/12/05 11:26:45;;;;;;;6.30;5.68;;;6.30;99.90;;;;;;5068704;28;20025;-44
2021/12/05 11:29:11;;;;;;;8.15;6.85;;;6.30;99.90;;;;;;5068961;28;20106;-43
2021/12/05 11:31:38;;;;;;;7.30;6.55;;;6.30;99.90;;;;;;5068369;28;20143;-44
2021/12/05 11:34:04;;;;;;;6.22;5.70;;;6.40;99.90;;;;;;5068601;28;20455;-43
2021/12/05 11:36:35;;;;;;;14.77;5.63;;;6.40;99.90;;;;;;5068738;28;20590;-43
2021/12/05 11:39:24;;;;;;;7.57;5.78;;;6.40;99.90;;;;;;5068421;28;20056;-44
2021/12/05 11:41:50;;;;;;;8.27;6.80;;;6.40;99.90;;;;;;5059795;28;20074;-44
2021/12/05 11:44:19;;;;;;;7.07;6.38;;;6.40;99.90;;;;;;5068433;28;20032;-43
2021/12/05 11:46:45;;;;;;;7.15;6.18;;;6.40;99.90;;;;;;5057114;28;20373;-44
2021/12/05 11:49:21;;;;;;;7.55;6.45;;;6.40;99.90;;;;;;5068760;28;20028;-43
2021/12/05 11:51:58;;;;;;;6.63;6.03;;;6.40;99.90;;;;;;5068180;28;20031;-44
2021/12/05 11:54:30;;;;;;;7.30;6.60;;;6.40;99.90;;;;;;5067273;28;20560;-43
2021/12/05 11:57:00;;;;;;;6.07;5.47;;;6.50;99.90;;;;;;5068929;28;20035;-43
2021/12/05 11:59:33;;;;;;;6.45;5.78;;;6.50;99.90;;;;;;5067718;28;20028;-43
2021/12/05 12:02:13;;;;;;;6.97;6.28;;;6.50;99.90;;;;;;5068440;28;20033;-44
2021/12/05 12:04:54;;;;;;;9.35;7.00;;;6.50;99.90;;;;;;5068024;28;20056;-44
2021/12/05 12:07:31;;;;;;;9.93;6.80;;;6.50;99.90;;;;;;5067597;28;20046;-44
2021/12/05 12:10:11;;;;;;;6.97;6.28;;;6.40;99.90;;;;;;5068066;28;20086;-44
2021/12/05 12:12:45;;;;;;;6.30;5.70;;;6.40;99.90;;;;;;5057574;28;20066;-44
2021/12/05 12:15:11;;;;;;;7.15;6.45;;;6.50;99.90;;;;;;5067837;28;20016;-44
2021/12/05 12:17:36;;;;;;;6.35;5.75;;;6.50;99.90;;;;;;5067917;28;20020;-44
2021/12/05 12:20:09;;;;;;;7.13;6.43;;;6.50;99.90;;;;;;5068000;28;20471;-44
2021/12/05 12:22:35;;;;;;;6.50;5.80;;;6.60;99.90;;;;;;5064306;28;20087;-44
2021/12/05 12:25:05;;;;;;;6.97;6.28;;;6.60;99.90;;;;;;5068545;28;20064;-44
2021/12/05 12:27:31;;;;;;;6.95;6.25;;;6.60;99.90;;;;;;5066073;28;20520;-45
2021/12/05 12:29:59;;;;;;;6.10;5.50;;;6.60;99.90;;;;;;5067728;28;20068;-44
2021/12/05 12:32:32;;;;;;;6.22;5.63;;;6.60;99.90;;;;;;5067371;28;20522;-45
2021/12/05 12:35:07;;;;;;;7.13;6.00;;;6.70;99.90;;;;;;5066833;28;20819;-44
2021/12/05 12:37:56;;;;;;;6.10;5.50;;;6.70;99.90;;;;;;5066985;28;20020;-44
2021/12/05 12:40:35;;;;;;;6.95;6.30;;;6.70;99.90;;;;;;5067742;28;20044;-44
2021/12/05 12:43:01;;;;;;;6.75;6.05;;;6.60;99.90;;;;;;5065462;28;20021;-43
2021/12/05 12:45:27;;;;;;;6.10;5.55;;;6.70;99.90;;;;;;5067559;28;20435;-46
2021/12/05 12:48:02;;;;;;;6.03;5.35;;;6.70;99.90;;;;;;5067713;28;20028;-44
2021/12/05 12:50:34;;;;;;;5.88;5.38;;;6.70;99.90;;;;;;5066846;28;20041;-44
2021/12/05 12:53:03;;;;;;;6.00;5.50;;;6.70;99.90;;;;;;5066997;28;20033;-44
2021/12/05 12:55:36;;;;;;;5.45;4.95;;;6.70;99.90;;;;;;5066828;28;20388;-43
2021/12/05 12:58:05;;;;;;;;;;;6.70;99.90;;;;;;5068394;28;20141;-43
2021/12/05 13:00:32;;;;;;;5.63;5.13;;;6.70;99.90;;;;;;5047202;28;20402;-42
2021/12/05 13:03:01;;;;;;;7.38;5.35;;;6.70;99.90;;;;;;5061205;28;20060;-43
2021/12/05 13:11:11;;;;;;;5.95;5.35;;;6.70;99.90;;;;;;5046327;28;20064;-43
2021/12/05 13:13:40;;;;;;;5.97;5.38;;;6.70;99.90;;;;;;5063848;28;20043;-42
2021/12/05 13:16:22;;;;;;;6.00;5.50;;;6.80;99.90;;;;;;5067544;28;20051;-43
2021/12/05 13:18:56;;;;;;;6.32;5.72;;;6.70;99.90;;;;;;5065421;28;20026;-43
2021/12/05 13:21:38;;;;;;;5.05;4.55;;;6.70;99.90;;;;;;5067353;28;20025;-43
2021/12/05 13:24:26;;;;;;;5.13;4.63;;;6.70;99.90;;;;;;5066373;28;20065;-44
2021/12/05 13:27:01;;;;;;;5.18;4.70;;;6.70;99.90;;;;;;5066889;28;20024;-43
2021/12/05 13:29:29;;;;;;;4.90;4.50;;;6.70;99.90;;;;;;5067159;28;20040;-43
2021/12/05 13:32:13;;;;;;;4.43;4.03;;;6.70;99.90;;;;;;5066196;28;20021;-44
2021/12/05 13:34:41;;;;;;;4.70;4.30;;;6.80;99.90;;;;;;5066266;28;20031;-44
2021/12/05 13:37:10;;;;;;;4.32;3.92;;;6.80;99.90;;;;;;5067255;28;20104;-43
2021/12/05 13:39:43;;;;;;;4.05;3.70;;;6.80;99.90;;;;;;5065713;28;20642;-44
2021/12/05 13:42:21;;;;;;;4.45;4.05;;;6.80;99.90;;;;;;5067489;28;20035;-42
2021/12/05 13:44:58;;;;;;;4.60;4.20;;;6.80;99.90;;;;;;5065263;28;20033;-43
2021/12/05 13:47:29;;;;;;;3.90;3.60;;;6.80;99.90;;;;;;5066785;28;20503;-44
2021/12/05 13:49:56;;;;;;;4.50;4.10;;;6.80;99.90;;;;;;5065792;28;20039;-44
2021/12/05 13:52:39;;;;;;;4.05;3.75;;;6.80;99.90;;;;;;5066393;28;20443;-43
2021/12/05 13:55:42;;;;;;;4.40;4.00;;;6.80;99.90;;;;;;5066391;28;20027;-44
2021/12/05 13:58:24;;;;;;;5.20;4.03;;;6.80;99.90;;;;;;5067111;28;20552;-44
2021/12/05 14:00:55;;;;;;;4.45;4.00;;;6.80;99.90;;;;;;5062645;28;20441;-43
2021/12/05 14:03:55;;;;;;;4.07;3.55;;;6.70;99.90;;;;;;5066473;28;20115;-44
2021/12/05 14:06:52;;;;;;;6.05;5.03;;;6.70;99.90;;;;;;5065898;28;20029;-44
2021/12/05 14:09:39;;;;;;;5.05;4.60;;;6.80;99.90;;;;;;5066501;28;20127;-43
2021/12/05 14:12:19;;;;;;;4.80;4.40;;;6.80;99.90;;;;;;5067186;28;20025;-44
2021/12/05 14:14:59;;;;;;;4.38;4.00;;;6.80;99.90;;;;;;5064899;28;20021;-44
2021/12/05 14:17:29;;;;;;;5.45;4.72;;;6.70;99.90;;;;;;5066341;28;20101;-44
2021/12/05 14:20:20;;;;;;;5.57;5.05;;;6.70;99.90;;;;;;5065760;28;20034;-43
2021/12/05 14:22:50;;;;;;;5.65;5.07;;;6.70;99.90;;;;;;5063159;28;20044;-43
2021/12/05 14:25:19;;;;;;;6.63;5.30;;;6.60;99.90;;;;;;5066229;28;20127;-44
2021/12/05 14:27:58;;;;;;;5.65;5.15;;;6.60;99.90;;;;;;5065704;28;20043;-43
2021/12/05 14:30:29;;;;;;;5.18;4.68;;;6.60;99.90;;;;;;5066219;28;20032;-42
2021/12/05 14:32:58;;;;;;;5.40;4.38;;;6.60;99.90;;;;;;5065969;28;20396;-43
2021/12/05 14:35:32;;;;;;;5.20;4.68;;;6.60;99.90;;;;;;5065406;28;20033;-43
2021/12/05 14:37:58;;;;;;;6.22;4.88;;;6.50;99.90;;;;;;5066688;28;20035;-44
2021/12/05 14:40:30;;;;;;;7.32;5.95;;;6.50;99.90;;;;;;5066120;28;20025;-43
2021/12/05 14:42:59;;;;;;;7.03;6.10;;;6.50;99.90;;;;;;5065753;28;20025;-44
2021/12/05 14:45:27;;;;;;;7.63;5.93;;;6.50;99.90;;;;;;5061497;28;20046;-44
2021/12/05 14:47:54;;;;;;;7.63;5.80;;;6.50;99.90;;;;;;5065369;28;20016;-43
2021/12/05 14:50:24;;;;;;;6.72;6.00;;;6.50;99.90;;;;;;5066095;28;20029;-44
2021/12/05 14:52:53;;;;;;;8.95;6.88;;;6.50;99.90;;;;;;5066020;28;20027;-43
2021/12/05 14:55:20;;;;;;;9.23;6.78;;;6.50;99.90;;;;;;5065086;28;20029;-44
2021/12/05 14:57:49;;;;;;;10.27;7.63;;;6.50;99.90;;;;;;5065189;28;20099;-43
2021/12/05 15:00:29;;;;;;;10.85;7.35;;;6.40;99.90;;;;;;5066713;28;20036;-43
2021/12/05 15:03:05;;;;;;;9.65;7.25;;;6.40;99.90;;;;;;5066067;28;20020;-43
2021/12/05 15:05:33;;;;;;;9.95;7.60;;;6.40;99.90;;;;;;5069426;28;20047;-43
2021/12/05 15:08:01;;;;;;;9.95;7.55;;;6.40;99.90;;;;;;5069415;28;20024;-43
2021/12/05 15:10:30;;;;;;;8.43;6.65;;;6.40;99.90;;;;;;5068209;28;20029;-43
2021/12/05 15:12:55;;;;;;;7.93;6.72;;;6.40;99.90;;;;;;5068978;28;20467;-45
2021/12/05 15:15:24;;;;;;;8.93;6.90;;;6.40;99.90;;;;;;5068123;28;20605;-44
2021/12/05 15:17:50;;;;;;;6.90;6.18;;;6.40;99.90;;;;;;5068584;28;20091;-43
2021/12/05 15:20:20;;;;;;;8.68;6.78;;;6.40;99.90;;;;;;5067953;28;20488;-43
2021/12/05 15:22:48;;;;;;;7.85;6.60;;;6.40;99.90;;;;;;5068621;28;20057;-43
2021/12/05 15:25:17;;;;;;;10.88;6.32;;;6.30;99.90;;;;;;5068567;28;20040;-45
2021/12/05 15:27:44;;;;;;;8.27;5.88;;;6.30;99.90;;;;;;5069214;28;20039;-44
2021/12/05 15:30:23;;;;;;;8.15;6.20;;;6.30;99.90;;;;;;5068177;28;20418;-43
2021/12/05 15:32:55;;;;;;;6.88;6.18;;;6.30;99.90;;;;;;5068653;28;20033;-43
2021/12/05 15:35:22;;;;;;;7.80;6.18;;;6.30;99.90;;;;;;5069322;28;20204;-44
2021/12/05 15:37:58;;;;;;;8.00;6.40;;;6.30;99.90;;;;;;5067688;28;20156;-44
2021/12/05 15:40:25;;;;;;;6.40;5.78;;;6.40;99.90;;;;;;5067549;28;20037;-44
2021/12/05 15:42:56;;;;;;;6.72;6.03;;;6.40;99.90;;;;;;5068094;28;20040;-42
2021/12/05 15:45:22;;;;;;;7.40;6.57;;;6.40;99.90;;;;;;5068090;28;20525;-44
2021/12/05 15:47:49;;;;;;;6.80;6.20;;;6.40;99.90;;;;;;5068673;28;20044;-44
2021/12/05 15:50:32;;;;;;;8.48;6.78;;;6.40;99.90;;;;;;5068637;28;20024;-44
2021/12/05 15:53:09;;;;;;;8.77;6.60;;;6.40;99.90;;;;;;5068236;28;20107;-43
2021/12/05 15:55:39;;;;;;;7.05;6.15;;;6.40;99.90;;;;;;5068438;28;20056;-43
2021/12/05 15:58:08;;;;;;;8.25;6.20;;;6.40;99.90;;;;;;5067841;28;20112;-43
2021/12/05 16:00:59;;;;;;;7.45;6.50;;;6.30;99.90;;;;;;5067693;28;20037;-43
2021/12/05 16:03:39;;;;;;;9.07;6.97;;;6.30;99.90;;;;;;5068460;28;20031;-44
2021/12/05 16:06:04;;;;;;;10.07;7.05;;;6.30;99.90;;;;;;5067498;28;20035;-44
2021/12/05 16:08:32;;;;;;;10.55;8.77;;;6.20;99.90;;;;;;5068228;28;20111;-42
2021/12/05 16:10:59;;;;;;;12.85;8.98;;;6.20;99.90;;;;;;5067203;28;20043;-43
2021/12/05 16:13:30;;;;;;;8.63;7.43;;;6.20;99.90;;;;;;5067419;28;20024;-43
2021/12/05 16:16:37;;;;;;;11.07;7.57;;;6.20;99.90;;;;;;5068040;28;20040;-44
2021/12/05 16:19:08;;;;;;;9.23;7.90;;;6.20;99.90;;;;;;5055143;28;20028;-43
2021/12/05 16:21:36;;;;;;;11.35;8.57;;;6.20;99.90;;;;;;5067304;28;20085;-44
2021/12/05 16:24:07;;;;;;;10.25;7.80;;;6.20;99.90;;;;;;5068043;28;20017;-43
2021/12/05 16:26:34;;;;;;;10.00;8.50;;;6.20;99.90;;;;;;5066890;28;20132;-43
2021/12/05 16:29:22;;;;;;;10.52;8.27;;;6.10;99.90;;;;;;5068254;28;20017;-42
2021/12/05 16:31:57;;;;;;;10.10;8.77;;;6.10;99.90;;;;;;5068234;28;20041;-43
2021/12/05 16:34:25;;;;;;;12.00;8.15;;;6.10;99.90;;;;;;5067040;28;20042;-44
2021/12/05 16:36:56;;;;;;;9.55;8.15;;;6.10;99.90;;;;;;5067365;28;20551;-44
2021/12/05 16:39:43;;;;;;;11.85;8.57;;;6.10;99.90;;;;;;5068371;28;20009;-43
2021/12/05 16:42:21;;;;;;;13.88;9.63;;;6.10;99.90;;;;;;5066871;28;20028;-43
2021/12/05 16:44:56;;;;;;;11.38;9.63;;;6.10;99.90;;;;;;5067480;28;20024;-43
2021/12/05 16:47:29;;;;;;;9.90;8.57;;;6.10;99.90;;;;;;5065749;28;20016;-44
2021/12/05 16:49:57;;;;;;;13.07;9.40;;;6.00;99.90;;;;;;5066417;28;20032;-44
2021/12/05 16:52:29;;;;;;;11.55;9.95;;;6.00;99.90;;;;;;5065450;28;20498;-44
2021/12/05 16:55:04;;;;;;;13.30;9.82;;;6.00;99.90;;;;;;5065018;28;20380;-43
2021/12/05 16:57:40;;;;;;;11.40;8.80;;;6.00;99.90;;;;;;5065025;28;20074;-43
2021/12/05 17:00:19;;;;;;;14.65;9.75;;;6.00;99.90;;;;;;5065667;28;20024;-44
2021/12/05 17:02:51;;;;;;;12.48;9.85;;;6.00;99.90;;;;;;5064766;28;20016;-43
2021/12/05 17:05:22;;;;;;;15.00;9.88;;;6.00;99.90;;;;;;5065102;28;20024;-43
2021/12/05 17:07:56;;;;;;;14.90;9.93;;;5.90;99.90;;;;;;5065363;28;20186;-46
2021/12/05 17:10:25;;;;;;;11.30;9.15;;;5.90;99.90;;;;;;5065230;28;20498;-43
2021/12/05 17:12:57;;;;;;;13.23;10.55;;;5.90;99.90;;;;;;5066948;28;20032;-43
2021/12/05 17:15:26;;;;;;;13.80;11.05;;;5.90;99.90;;;;;;5067613;28;20029;-43
2021/12/05 17:18:01;;;;;;;14.25;11.23;;;5.90;99.90;;;;;;5066362;28;20025;-42
2021/12/05 17:20:36;;;;;;;14.15;11.15;;;5.90;99.90;;;;;;5065160;28;20046;-43
2021/12/05 17:23:14;;;;;;;15.38;11.15;;;5.90;99.90;;;;;;5065247;28;20070;-43
2021/12/05 17:25:40;;;;;;;14.90;10.75;;;5.90;99.90;;;;;;5067322;28;20032;-43
2021/12/05 17:28:30;;;;;;;13.88;10.55;;;5.90;99.90;;;;;;5055698;28;20048;-44
2021/12/05 17:30:59;;;;;;;14.93;10.85;;;5.90;99.90;;;;;;5065661;28;20063;-44
2021/12/05 17:33:33;;;;;;;15.43;10.65;;;5.90;99.90;;;;;;5066898;28;20406;-42
2021/12/05 17:36:17;;;;;;;15.10;11.98;;;5.90;99.90;;;;;;5066271;28;20028;-44
2021/12/05 17:38:43;;;;;;;15.48;11.77;;;5.80;99.90;;;;;;5056239;28;20837;-43
2021/12/05 17:41:09;;;;;;;14.60;11.45;;;5.90;99.90;;;;;;5066469;28;20055;-42
2021/12/05 17:43:34;;;;;;;17.52;11.85;;;5.80;99.90;;;;;;5066715;28;20396;-44
2021/12/05 17:46:00;;;;;;;16.35;12.20;;;5.80;99.90;;;;;;5065866;28;20032;-44
2021/12/05 17:48:26;;;;;;;15.77;11.50;;;5.80;99.90;;;;;;5065884;28;20020;-43
2021/12/05 17:50:56;;;;;;;13.25;11.52;;;5.80;99.90;;;;;;5066098;28;20028;-43
2021/12/05 17:53:29;;;;;;;15.70;12.07;;;5.90;99.90;;;;;;5066723;28;20042;-43
2021/12/05 17:56:01;;;;;;;14.65;12.02;;;5.90;99.90;;;;;;5066681;28;20029;-43
2021/12/05 17:58:54;;;;;;;14.40;12.00;;;5.90;99.90;;;;;;5065872;28;20021;-43
2021/12/05 18:04:06;;;;;;;16.58;12.48;;;5.90;99.90;;;;;;5064608;28;20089;-43